createdAt,value
2019-05-03T00:00:13.511Z,97775.42
2019-05-03T00:02:26.256Z,97766.89
2019-05-03T00:04:38.052Z,97769.75
2019-05-03T00:06:48.902Z,97766.15
2019-05-03T00:09:01.574Z,97764.28
2019-05-03T00:11:12.655Z,97762.98
2019-05-03T00:13:23.465Z,97765.72
2019-05-03T00:15:36.641Z,97767.50
2019-05-03T00:17:47.594Z,97760.42
2019-05-03T00:19:58.536Z,97765.38
2019-05-03T00:22:09.407Z,97765.25
2019-05-03T00:24:22.689Z,97762.41
2019-05-03T00:26:33.583Z,97766.31
2019-05-03T00:28:44.539Z,97771.52
2019-05-03T00:30:55.395Z,97767.10
2019-05-03T00:33:06.231Z,97762.50
2019-05-03T00:35:31.954Z,97767.22
2019-05-03T00:37:44.824Z,97762.50
2019-05-03T00:40:06.503Z,97767.70
2019-05-03T00:42:17.380Z,97767.30
2019-05-03T00:44:28.218Z,97768.30
2019-05-03T00:46:39.089Z,97762.19
2019-05-03T00:48:49.942Z,97764.41
2019-05-03T00:51:02.454Z,97764.78
2019-05-03T00:53:13.554Z,97762.57
2019-05-03T00:55:24.499Z,97761.14
2019-05-03T00:57:35.357Z,97758.09
2019-05-03T00:59:46.215Z,97760.44
2019-05-03T01:01:59.145Z,97759.09
2019-05-03T01:04:11.784Z,97760.09
2019-05-03T01:06:22.757Z,97754.64
2019-05-03T01:08:33.600Z,97752.77
2019-05-03T01:10:44.457Z,97748.31
2019-05-03T01:12:57.366Z,97755.38
2019-05-03T01:15:13.227Z,97750.31
2019-05-03T01:17:24.112Z,97755.11
2019-05-03T01:19:34.963Z,97752.89
2019-05-03T01:21:45.819Z,97753.60
2019-05-03T01:23:56.645Z,97753.13
2019-05-03T01:26:07.508Z,97760.92
2019-05-03T01:28:18.373Z,97753.95
2019-05-03T01:30:29.310Z,97758.33
2019-05-03T01:32:41.808Z,97756.34
2019-05-03T01:34:52.840Z,97765.09
2019-05-03T01:37:03.892Z,97765.42
2019-05-03T01:39:14.735Z,97758.47
2019-05-03T01:41:25.704Z,97760.02
2019-05-03T01:43:36.662Z,97762.69
2019-05-03T01:45:47.633Z,97766.94
2019-05-03T01:48:06.531Z,97762.35
2019-05-03T01:50:19.308Z,97764.05
2019-05-03T01:52:32.463Z,97763.91
2019-05-03T01:54:43.486Z,97763.74
2019-05-03T01:56:58.724Z,97766.94
2019-05-03T01:59:07.102Z,97765.38
2019-05-03T02:01:22.857Z,97764.34
2019-05-03T02:03:35.614Z,97755.85
2019-05-03T02:05:52.030Z,97761.31
2019-05-03T02:08:03.154Z,97763.98
2019-05-03T02:10:14.130Z,97768.45
2019-05-03T02:14:43.273Z,97761.45
2019-05-03T02:16:54.118Z,97770.64
2019-05-03T02:19:05.094Z,97768.16
2019-05-03T02:21:15.933Z,97769.81
2019-05-03T02:23:26.907Z,97769.67
2019-05-03T02:25:37.830Z,97772.63
2019-05-03T02:27:48.667Z,97770.63
2019-05-03T02:30:02.744Z,97774.39
2019-05-03T02:32:13.178Z,97768.09
2019-05-03T02:34:24.437Z,97776.72
2019-05-03T02:36:35.504Z,97770.70
2019-05-03T02:38:46.460Z,97773.36
2019-05-03T02:40:57.393Z,97768.64
2019-05-03T02:43:16.648Z,97774.19
2019-05-03T02:45:29.629Z,97768.25
2019-05-03T02:47:42.368Z,97767.95
2019-05-03T02:49:56.234Z,97776.88
2019-05-03T02:52:09.210Z,97768.16
2019-05-03T02:54:20.088Z,97776.53
2019-05-03T02:56:31.192Z,97780.07
2019-05-03T02:58:42.003Z,97777.89
2019-05-03T03:00:56.370Z,97779.05
2019-05-03T03:03:07.319Z,97779.75
2019-05-03T03:05:18.584Z,97777.59
2019-05-03T03:07:30.436Z,97778.57
2019-05-03T03:09:41.740Z,97781.05
2019-05-03T03:11:55.954Z,97778.45
2019-05-03T03:14:10.082Z,97773.98
2019-05-03T03:16:21.063Z,97778.45
2019-05-03T03:18:37.870Z,97783.15
2019-05-03T03:20:51.625Z,97780.67
2019-05-03T03:23:02.563Z,97787.31
2019-05-03T03:25:17.574Z,97783.65
2019-05-03T03:27:30.249Z,97783.30
2019-05-03T03:29:42.910Z,97790.73
2019-05-03T03:32:18.715Z,97789.38
2019-05-03T03:34:54.511Z,97789.23
2019-05-03T03:37:04.652Z,97790.39
2019-05-03T03:39:11.982Z,97788.34
2019-05-03T03:41:24.969Z,97788.55
2019-05-03T03:43:36.487Z,97791.51
2019-05-03T03:45:49.074Z,97789.14
2019-05-03T03:48:00.506Z,97790.33
2019-05-03T03:50:11.545Z,97795.58
2019-05-03T03:52:25.490Z,97798.74
2019-05-03T03:54:37.070Z,97800.78
2019-05-03T03:57:02.211Z,97798.74
2019-05-03T03:59:05.884Z,97800.40
2019-05-03T04:01:17.008Z,97799.84
2019-05-03T04:03:28.038Z,97803.14
2019-05-03T04:05:39.179Z,97805.03
2019-05-03T04:07:50.143Z,97804.36
2019-05-03T04:10:01.296Z,97804.92
2019-05-03T04:12:12.331Z,97813.59
2019-05-03T04:14:27.968Z,97811.12
2019-05-03T04:16:40.837Z,97818.56
2019-05-03T04:18:55.098Z,97812.41
2019-05-03T04:21:06.259Z,97813.03
2019-05-03T04:23:17.207Z,97813.54
2019-05-03T04:25:28.154Z,97824.20
2019-05-03T04:27:39.923Z,97823.11
2019-05-03T04:29:50.854Z,97822.25
2019-05-03T04:32:06.301Z,97825.20
2019-05-03T04:34:17.205Z,97824.61
2019-05-03T04:36:28.132Z,97828.58
2019-05-03T04:38:39.031Z,97827.13
2019-05-03T04:40:50.070Z,97827.59
2019-05-03T04:43:01.043Z,97822.64
2019-05-03T04:45:12.017Z,97830.91
2019-05-03T04:47:22.858Z,97829.20
2019-05-03T04:49:36.278Z,97826.39
2019-05-03T04:51:46.784Z,97830.91
2019-05-03T04:54:11.518Z,97828.08
2019-05-03T04:56:22.501Z,97835.75
2019-05-03T04:58:36.101Z,97835.41
2019-05-03T05:00:46.660Z,97836.01
2019-05-03T05:02:57.770Z,97842.13
2019-05-03T05:05:09.525Z,97841.42
2019-05-03T05:07:20.474Z,97847.19
2019-05-03T05:09:31.420Z,97849.39
2019-05-03T05:11:42.319Z,97852.46
2019-05-03T05:13:53.200Z,97852.46
2019-05-03T05:16:05.918Z,97855.54
2019-05-03T05:18:31.172Z,97859.41
2019-05-03T05:20:46.915Z,97858.23
2019-05-03T05:22:57.750Z,97861.88
2019-05-03T05:25:10.831Z,97865.09
2019-05-03T05:27:26.337Z,97864.91
2019-05-03T05:29:39.085Z,97867.19
2019-05-03T05:31:49.927Z,97870.35
2019-05-03T05:34:00.812Z,97872.95
2019-05-03T05:36:11.668Z,97868.28
2019-05-03T05:38:25.582Z,97875.94
2019-05-03T05:40:36.661Z,97878.73
2019-05-03T05:42:47.604Z,97879.53
2019-05-03T05:44:58.460Z,97879.27
2019-05-03T05:47:17.193Z,97884.39
2019-05-03T05:49:40.973Z,97884.94
2019-05-03T05:51:51.824Z,97885.25
2019-05-03T05:54:02.779Z,97889.98
2019-05-03T05:56:27.801Z,97891.95
2019-05-03T05:58:58.745Z,97905.91
2019-05-03T06:01:25.003Z,97907.84
2019-05-03T06:03:36.061Z,97915.63
2019-05-03T06:05:47.032Z,97923.31
2019-05-03T06:10:47.420Z,97923.81
2019-05-03T06:13:00.175Z,97932.62
2019-05-03T06:15:14.930Z,97938.42
2019-05-03T06:17:30.798Z,97939.39
2019-05-03T06:19:49.706Z,97943.65
2019-05-03T06:22:20.615Z,97943.65
2019-05-03T06:24:48.604Z,97948.57
2019-05-03T06:27:05.047Z,97953.31
2019-05-03T06:29:16.019Z,97955.44
2019-05-03T06:31:28.889Z,97955.52
2019-05-03T06:33:39.754Z,97953.31
2019-05-03T06:35:50.636Z,97950.89
2019-05-03T06:38:01.464Z,97955.44
2019-05-03T06:40:14.783Z,97956.27
2019-05-03T06:42:25.597Z,97954.97
2019-05-03T06:44:36.542Z,97962.59
2019-05-03T06:46:49.136Z,97965.83
2019-05-03T06:49:01.063Z,97963.52
2019-05-03T06:51:17.852Z,97962.10
2019-05-03T06:53:25.551Z,97961.47
2019-05-03T06:55:39.997Z,97964.81
2019-05-03T06:57:49.865Z,97967.38
2019-05-03T07:00:08.414Z,97967.93
2019-05-03T07:02:38.021Z,97971.08
2019-05-03T07:04:53.723Z,97969.59
2019-05-03T07:07:06.602Z,97973.66
2019-05-03T07:09:31.197Z,97975.59
2019-05-03T07:11:42.045Z,97983.74
2019-05-03T07:13:54.894Z,97979.09
2019-05-03T07:16:05.730Z,97988.66
2019-05-03T07:18:16.596Z,97983.36
2019-05-03T07:20:27.534Z,97991.26
2019-05-03T07:22:38.391Z,97995.24
2019-05-03T07:24:49.245Z,97993.03
2019-05-03T07:27:00.178Z,97998.88
2019-05-03T07:29:11.059Z,97997.97
2019-05-03T07:31:22.103Z,98001.50
2019-05-03T07:33:34.863Z,98003.27
2019-05-03T07:35:45.800Z,98002.52
2019-05-03T07:37:56.675Z,98008.52
2019-05-03T07:40:07.829Z,98009.46
2019-05-03T07:42:18.663Z,98001.86
2019-05-03T07:44:29.537Z,98006.58
2019-05-03T07:46:40.502Z,98012.41
2019-05-03T07:48:51.368Z,98011.95
2019-05-03T07:51:02.232Z,98012.78
2019-05-03T07:53:14.880Z,98011.02
2019-05-03T07:55:45.705Z,98011.66
2019-05-03T07:57:58.578Z,98012.77
2019-05-03T08:00:10.345Z,98015.53
2019-05-03T08:02:24.292Z,98014.23
2019-05-03T08:04:35.911Z,98011.05
2019-05-03T08:06:46.822Z,98007.70
2019-05-03T08:08:57.910Z,98009.25
2019-05-03T08:11:08.864Z,98013.23
2019-05-03T08:13:19.829Z,98012.81
2019-05-03T08:15:30.690Z,98007.30
2019-05-03T08:17:41.758Z,98008.05
2019-05-03T08:19:55.167Z,98005.88
2019-05-03T08:22:06.378Z,98000.65
2019-05-03T08:24:17.270Z,97999.53
2019-05-03T08:26:28.125Z,97996.13
2019-05-03T08:28:39.074Z,97984.31
2019-05-03T08:30:51.856Z,97991.81
2019-05-03T08:33:24.954Z,97997.41
2019-05-03T08:35:37.839Z,97994.96
2019-05-03T08:37:50.595Z,98004.72
2019-05-03T08:40:05.156Z,98001.89
2019-05-03T08:42:18.131Z,97999.55
2019-05-03T08:44:29.109Z,97994.70
2019-05-03T08:46:39.969Z,97989.23
2019-05-03T08:48:50.830Z,97989.83
2019-05-03T08:51:04.508Z,97988.14
2019-05-03T08:53:15.832Z,97983.03
2019-05-03T08:55:26.729Z,97990.97
2019-05-03T08:57:37.684Z,97991.09
2019-05-03T08:59:48.574Z,97985.00
2019-05-03T09:02:03.566Z,97992.12
2019-05-03T09:04:12.438Z,97997.67
2019-05-03T09:06:24.803Z,97997.86
2019-05-03T09:08:35.925Z,97991.63
2019-05-03T09:10:48.787Z,97991.75
2019-05-03T09:13:10.669Z,97993.00
2019-05-03T09:15:21.824Z,97991.69
2019-05-03T09:17:32.813Z,97989.81
2019-05-03T09:19:45.302Z,97994.11
2019-05-03T09:21:56.391Z,97990.58
2019-05-03T09:24:07.358Z,97991.40
2019-05-03T09:26:18.350Z,97990.50
2019-05-03T09:28:29.350Z,97989.99
2019-05-03T09:30:40.259Z,97990.92
2019-05-03T09:32:51.107Z,97996.04
2019-05-03T09:35:05.535Z,97993.98
2019-05-03T09:37:16.518Z,97988.61
2019-05-03T09:39:27.358Z,97994.70
2019-05-03T09:41:38.314Z,97997.34
2019-05-03T09:43:49.171Z,97993.31
2019-05-03T09:46:00.038Z,98000.21
2019-05-03T09:48:10.887Z,97993.50
2019-05-03T09:50:21.848Z,97999.42
2019-05-03T09:52:35.328Z,97995.95
2019-05-03T09:54:47.480Z,97991.78
2019-05-03T09:56:59.200Z,97995.31
2019-05-03T09:59:10.062Z,97991.88
2019-05-03T10:01:20.911Z,97995.93
2019-05-03T10:03:31.795Z,97989.41
2019-05-03T10:05:42.729Z,97996.15
2019-05-03T10:07:53.609Z,97987.03
2019-05-03T10:10:05.730Z,97991.34
2019-05-03T10:12:18.530Z,97982.39
2019-05-03T10:14:29.380Z,97987.76
2019-05-03T10:16:51.424Z,97986.59
2019-05-03T10:19:02.518Z,97985.42
2019-05-03T10:21:14.809Z,97980.80
2019-05-03T10:23:35.772Z,97981.03
2019-05-03T10:25:46.701Z,97974.86
2019-05-03T10:27:57.659Z,97974.88
2019-05-03T10:30:12.964Z,97970.47
2019-05-03T10:32:41.687Z,97970.09
2019-05-03T10:34:54.338Z,97970.98
2019-05-03T10:37:07.073Z,97967.84
2019-05-03T10:39:17.939Z,97965.23
2019-05-03T10:41:28.890Z,97963.47
2019-05-03T10:43:39.868Z,97965.59
2019-05-03T10:45:50.818Z,97961.91
2019-05-03T10:48:01.772Z,97959.45
2019-05-03T10:50:12.842Z,97956.94
2019-05-03T10:52:25.849Z,97957.20
2019-05-03T10:54:36.764Z,97963.55
2019-05-03T10:56:49.634Z,97962.06
2019-05-03T10:59:02.399Z,97958.48
2019-05-03T11:01:14.852Z,97954.25
2019-05-03T11:03:25.697Z,97958.13
2019-05-03T11:05:36.786Z,97951.59
2019-05-03T11:07:47.632Z,97954.25
2019-05-03T11:09:58.588Z,97956.55
2019-05-03T11:12:09.436Z,97959.16
2019-05-03T11:14:20.291Z,97959.14
2019-05-03T11:16:31.227Z,97961.25
2019-05-03T11:18:42.159Z,97961.25
2019-05-03T11:20:54.561Z,97959.77
2019-05-03T11:23:06.381Z,97959.53
2019-05-03T11:25:17.394Z,97960.38
2019-05-03T11:27:30.139Z,97954.91
2019-05-03T11:29:41.023Z,97955.05
2019-05-03T11:32:08.255Z,97953.38
2019-05-03T11:34:22.554Z,97949.09
2019-05-03T11:36:37.941Z,97942.27
2019-05-03T11:38:50.700Z,97938.68
2019-05-03T11:41:01.794Z,97937.88
2019-05-03T11:43:12.848Z,97929.36
2019-05-03T11:45:24.624Z,97933.70
2019-05-03T11:47:35.865Z,97927.80
2019-05-03T11:49:46.881Z,97930.24
2019-05-03T11:51:57.778Z,97933.09
2019-05-03T11:54:08.619Z,97935.90
2019-05-03T11:56:19.494Z,97929.69
2019-05-03T11:58:30.349Z,97928.47
2019-05-03T12:00:41.221Z,97933.93
2019-05-03T12:02:55.614Z,97938.95
2019-05-03T12:05:08.773Z,97936.25
2019-05-03T12:07:38.973Z,97925.31
2019-05-03T12:09:45.238Z,97932.15
2019-05-03T12:11:56.326Z,97929.47
2019-05-03T12:14:10.767Z,97928.20
2019-05-03T12:16:48.810Z,97929.69
2019-05-03T12:18:47.744Z,97927.64
2019-05-03T12:20:48.498Z,97923.62
2019-05-03T12:23:01.083Z,97925.91
2019-05-03T12:25:14.008Z,97919.46
2019-05-03T12:27:25.566Z,97913.69
2019-05-03T12:29:36.524Z,97905.95
2019-05-03T12:31:47.415Z,97912.15
2019-05-03T12:33:58.376Z,97904.69
2019-05-03T12:36:09.550Z,97897.66
2019-05-03T12:38:20.610Z,97896.41
2019-05-03T12:40:31.663Z,97898.78
2019-05-03T12:42:42.569Z,97901.53
2019-05-03T12:44:55.154Z,97909.86
2019-05-03T12:47:06.289Z,97898.02
2019-05-03T12:49:17.170Z,97898.47
2019-05-03T12:51:28.334Z,97893.80
2019-05-03T12:53:41.205Z,97897.05
2019-05-03T12:55:52.175Z,97891.48
2019-05-03T12:58:05.880Z,97886.50
2019-05-03T13:00:31.393Z,97879.99
2019-05-03T13:02:46.891Z,97879.62
2019-05-03T13:04:58.039Z,97879.31
2019-05-03T13:07:27.630Z,97871.73
2019-05-03T13:09:38.526Z,97871.97
2019-05-03T13:11:55.683Z,97868.36
2019-05-03T13:14:04.805Z,97866.41
2019-05-03T13:16:17.115Z,97856.20
2019-05-03T13:18:28.014Z,97857.21
2019-05-03T13:20:38.854Z,97849.27
2019-05-03T13:22:49.684Z,97845.57
2019-05-03T13:25:00.773Z,97848.83
2019-05-03T13:27:11.712Z,97848.08
2019-05-03T13:29:22.695Z,97842.72
2019-05-03T13:31:35.431Z,97838.67
2019-05-03T13:33:46.317Z,97833.08
2019-05-03T13:35:57.314Z,97833.41
2019-05-03T13:38:08.298Z,97840.56
2019-05-03T13:40:19.237Z,97836.19
2019-05-03T13:42:30.347Z,97832.66
2019-05-03T13:44:41.239Z,97831.22
2019-05-03T13:46:52.077Z,97833.18
2019-05-03T13:49:05.387Z,97832.02
2019-05-03T13:51:16.536Z,97832.22
2019-05-03T13:53:27.353Z,97834.35
2019-05-03T13:55:38.348Z,97836.83
2019-05-03T13:57:49.211Z,97832.77
2019-05-03T14:00:00.178Z,97828.76
2019-05-03T14:02:15.540Z,97827.27
2019-05-03T14:04:23.973Z,97830.70
2019-05-03T14:06:36.621Z,97824.34
2019-05-03T14:08:47.559Z,97818.52
2019-05-03T14:10:58.516Z,97819.69
2019-05-03T14:13:09.365Z,97821.77
2019-05-03T14:15:20.415Z,97814.59
2019-05-03T14:17:31.343Z,97823.58
2019-05-03T14:19:42.367Z,97820.14
2019-05-03T14:21:55.117Z,97823.20
2019-05-03T14:24:09.555Z,97822.04
2019-05-03T14:26:20.485Z,97822.89
2019-05-03T14:28:31.344Z,97819.22
2019-05-03T14:30:45.330Z,97815.15
2019-05-03T14:32:56.254Z,97816.94
2019-05-03T14:35:07.506Z,97815.20
2019-05-03T14:37:18.373Z,97811.95
2019-05-03T14:39:29.231Z,97821.41
2019-05-03T14:41:40.120Z,97818.23
2019-05-03T14:43:50.987Z,97822.38
2019-05-03T14:46:01.923Z,97821.06
2019-05-03T14:48:15.072Z,97821.70
2019-05-03T14:50:25.751Z,97820.44
2019-05-03T14:52:36.729Z,97820.17
2019-05-03T14:54:49.607Z,97817.33
2019-05-03T14:57:11.449Z,97821.03
2019-05-03T14:59:26.117Z,97825.30
2019-05-03T15:01:51.230Z,97826.27
2019-05-03T15:04:02.288Z,97831.20
2019-05-03T15:06:15.349Z,97827.88
2019-05-03T15:08:26.131Z,97833.48
2019-05-03T15:10:37.034Z,97830.02
2019-05-03T15:12:47.927Z,97831.13
2019-05-03T15:14:58.963Z,97827.77
2019-05-03T15:17:09.830Z,97829.08
2019-05-03T15:19:20.791Z,97827.73
2019-05-03T15:21:31.754Z,97825.08
2019-05-03T15:23:42.654Z,97825.89
2019-05-03T15:25:54.575Z,97829.82
2019-05-03T15:28:05.681Z,97829.41
2019-05-03T15:30:16.633Z,97834.02
2019-05-03T15:32:27.578Z,97827.02
2019-05-03T15:34:38.538Z,97829.27
2019-05-03T15:36:49.397Z,97827.80
2019-05-03T15:39:00.278Z,97833.19
2019-05-03T15:41:11.251Z,97830.19
2019-05-03T15:43:28.485Z,97835.59
2019-05-03T15:45:48.109Z,97835.11
2019-05-03T15:48:00.927Z,97830.50
2019-05-03T15:50:12.304Z,97830.05
2019-05-03T15:52:24.679Z,97829.48
2019-05-03T15:54:35.720Z,97833.06
2019-05-03T15:56:46.664Z,97824.77
2019-05-03T15:58:57.551Z,97827.84
2019-05-03T16:01:09.336Z,97831.53
2019-05-03T16:03:20.183Z,97830.88
2019-05-03T16:05:31.193Z,97828.17
2019-05-03T16:07:42.087Z,97832.27
2019-05-03T16:09:55.087Z,97830.73
2019-05-03T16:12:05.891Z,97835.13
2019-05-03T16:14:16.801Z,97835.87
2019-05-03T16:16:27.640Z,97831.29
2019-05-03T16:18:38.545Z,97832.45
2019-05-03T16:20:49.381Z,97841.19
2019-05-03T16:23:00.447Z,97841.48
2019-05-03T16:25:11.632Z,97840.19
2019-05-03T16:27:30.235Z,97841.45
2019-05-03T16:29:41.230Z,97835.52
2019-05-03T16:31:52.165Z,97840.80
2019-05-03T16:34:04.308Z,97839.77
2019-05-03T16:36:15.395Z,97845.45
2019-05-03T16:38:26.262Z,97847.14
2019-05-03T16:40:37.264Z,97853.11
2019-05-03T16:42:48.209Z,97860.11
2019-05-03T16:44:59.069Z,97854.67
2019-05-03T16:47:09.937Z,97857.42
2019-05-03T16:49:20.916Z,97857.55
2019-05-03T16:51:31.916Z,97861.91
2019-05-03T16:53:44.501Z,97853.14
2019-05-03T16:55:55.669Z,97853.00
2019-05-03T16:58:06.612Z,97850.41
2019-05-03T17:00:18.084Z,97850.86
2019-05-03T17:02:28.959Z,97846.66
2019-05-03T17:04:45.181Z,97850.73
2019-05-03T17:07:15.237Z,97853.63
2019-05-03T17:09:37.405Z,97849.10
2019-05-03T17:11:54.596Z,97848.05
2019-05-03T17:14:06.021Z,97845.31
2019-05-03T17:16:17.080Z,97851.45
2019-05-03T17:18:28.261Z,97847.80
2019-05-03T17:20:39.096Z,97844.05
2019-05-03T17:22:50.084Z,97846.81
2019-05-03T17:25:01.128Z,97845.03
2019-05-03T17:27:12.104Z,97839.48
2019-05-03T17:29:24.628Z,97843.98
2019-05-03T17:31:35.523Z,97843.64
2019-05-03T17:33:53.123Z,97848.95
2019-05-03T17:35:59.293Z,97845.97
2019-05-03T17:38:10.227Z,97843.99
2019-05-03T17:40:23.214Z,97849.75
2019-05-03T17:42:54.600Z,97844.88
2019-05-03T17:45:05.935Z,97849.91
2019-05-03T17:47:16.920Z,97846.54
2019-05-03T17:49:27.772Z,97851.98
2019-05-03T17:51:52.933Z,97848.55
2019-05-03T17:54:05.699Z,97853.41
2019-05-03T17:56:24.501Z,97854.23
2019-05-03T17:58:44.328Z,97856.02
2019-05-03T18:01:13.782Z,97856.12
2019-05-03T18:03:26.579Z,97856.69
2019-05-03T18:05:39.447Z,97852.18
2019-05-03T18:08:01.052Z,97853.35
2019-05-03T18:10:12.903Z,97853.48
2019-05-03T18:12:24.402Z,97849.06
2019-05-03T18:14:35.471Z,97851.06
2019-05-03T18:16:46.336Z,97851.28
2019-05-03T18:18:57.335Z,97860.58
2019-05-03T18:21:08.208Z,97865.70
2019-05-03T18:23:19.216Z,97863.70
2019-05-03T18:25:30.121Z,97871.23
2019-05-03T18:27:41.121Z,97876.73
2019-05-03T18:29:52.045Z,97874.42
2019-05-03T18:32:03.088Z,97872.58
2019-05-03T18:34:19.763Z,97875.13
2019-05-03T18:36:26.918Z,97871.88
2019-05-03T18:38:38.589Z,97870.79
2019-05-03T18:40:49.539Z,97868.28
2019-05-03T18:43:04.431Z,97867.60
2019-05-03T18:45:34.788Z,97873.55
2019-05-03T18:47:45.860Z,97869.76
2019-05-03T18:49:56.767Z,97870.16
2019-05-03T18:52:07.798Z,97872.81
2019-05-03T18:54:18.786Z,97869.17
2019-05-03T18:56:29.750Z,97876.19
2019-05-03T18:58:40.820Z,97887.92
2019-05-03T19:00:51.944Z,97885.91
2019-05-03T19:03:02.906Z,97891.11
2019-05-03T19:05:15.267Z,97889.73
2019-05-03T19:07:31.058Z,97889.73
2019-05-03T19:09:46.572Z,97892.33
2019-05-03T19:11:59.435Z,97893.19
2019-05-03T19:14:12.257Z,97894.77
2019-05-03T19:16:41.618Z,97900.35
2019-05-03T19:18:52.644Z,97898.73
2019-05-03T19:21:04.667Z,97895.53
2019-05-03T19:23:15.559Z,97896.94
2019-05-03T19:25:28.419Z,97894.77
2019-05-03T19:27:39.281Z,97897.74
2019-05-03T19:29:50.129Z,97909.42
2019-05-03T19:32:01.279Z,97908.70
2019-05-03T19:34:12.237Z,97910.18
2019-05-03T19:36:23.228Z,97908.24
2019-05-03T19:38:35.167Z,97907.60
2019-05-03T19:40:46.236Z,97912.98
2019-05-03T19:42:59.022Z,97906.51
2019-05-03T19:45:10.447Z,97907.63
2019-05-03T19:47:21.321Z,97909.20
2019-05-03T19:49:32.211Z,97908.27
2019-05-03T19:51:45.046Z,97909.67
2019-05-03T19:53:56.087Z,97908.84
2019-05-03T19:56:07.171Z,97911.69
2019-05-03T19:58:18.145Z,97909.09
2019-05-03T20:00:31.042Z,97913.09
2019-05-03T20:02:45.415Z,97907.74
2019-05-03T20:05:14.978Z,97900.89
2019-05-03T20:07:27.960Z,97907.08
2019-05-03T20:09:38.907Z,97905.87
2019-05-03T20:11:49.895Z,97903.54
2019-05-03T20:14:00.883Z,97901.05
2019-05-03T20:16:12.073Z,97905.13
2019-05-03T20:18:22.911Z,97900.14
2019-05-03T20:20:33.781Z,97904.39
2019-05-03T20:22:45.102Z,97903.92
2019-05-03T20:24:57.541Z,97899.59
2019-05-03T20:27:08.542Z,97899.95
2019-05-03T20:29:19.416Z,97904.20
2019-05-03T20:31:30.463Z,97900.78
2019-05-03T20:33:41.334Z,97896.42
2019-05-03T20:35:54.326Z,97898.19
2019-05-03T20:38:05.088Z,97897.44
2019-05-03T20:40:16.190Z,97898.02
2019-05-03T20:42:45.692Z,97893.30
2019-05-03T20:44:58.474Z,97891.81
2019-05-03T20:47:14.923Z,97890.41
2019-05-03T20:49:25.983Z,97890.05
2019-05-03T20:51:36.943Z,97886.05
2019-05-03T20:53:47.839Z,97885.69
2019-05-03T20:55:58.784Z,97880.88
2019-05-03T20:58:11.499Z,97882.83
2019-05-03T21:00:25.608Z,97884.88
2019-05-03T21:02:36.916Z,97885.23
2019-05-03T21:04:47.773Z,97879.86
2019-05-03T21:06:58.738Z,97886.42
2019-05-03T21:09:09.599Z,97874.48
2019-05-03T21:11:20.475Z,97874.73
2019-05-03T21:13:39.896Z,97874.47
2019-05-03T21:15:46.023Z,97872.14
2019-05-03T21:18:04.992Z,97867.42
2019-05-03T21:20:35.930Z,97873.72
2019-05-03T21:22:46.979Z,97871.30
2019-05-03T21:25:02.521Z,97869.28
2019-05-03T21:27:13.449Z,97867.06
2019-05-03T21:29:24.320Z,97868.55
2019-05-03T21:31:35.324Z,97868.00
2019-05-03T21:33:46.340Z,97868.19
2019-05-03T21:35:57.283Z,97866.53
2019-05-03T21:38:08.134Z,97869.30
2019-05-03T21:40:19.022Z,97869.11
2019-05-03T21:42:30.000Z,97867.59
2019-05-03T21:44:41.075Z,97865.09
2019-05-03T21:46:51.925Z,97864.94
2019-05-03T21:49:16.934Z,97864.36
2019-05-03T21:51:27.827Z,97867.81
2019-05-03T21:53:38.687Z,97864.63
2019-05-03T21:55:49.550Z,97859.63
2019-05-03T21:58:00.394Z,97859.55
2019-05-03T22:00:14.590Z,97858.25
2019-05-03T22:02:25.537Z,97862.03
2019-05-03T22:04:36.403Z,97862.86
2019-05-03T22:06:47.360Z,97857.20
2019-05-03T22:08:58.516Z,97861.09
2019-05-03T22:11:09.365Z,97856.69
2019-05-03T22:13:20.334Z,97857.16
2019-05-03T22:15:48.185Z,97857.03
2019-05-03T22:18:17.942Z,97859.13
2019-05-03T22:20:35.064Z,97854.88
2019-05-03T22:22:47.927Z,97858.13
2019-05-03T22:25:04.750Z,97858.25
2019-05-03T22:27:15.722Z,97858.25
2019-05-03T22:29:26.695Z,97852.59
2019-05-03T22:31:37.567Z,97853.88
2019-05-03T22:33:48.443Z,97847.48
2019-05-03T22:36:08.321Z,97844.25
2019-05-03T22:38:12.085Z,97850.67
2019-05-03T22:40:24.989Z,97852.02
2019-05-03T22:42:35.811Z,97841.94
2019-05-03T22:44:46.676Z,97840.17
2019-05-03T22:46:57.705Z,97831.75
2019-05-03T22:49:08.613Z,97824.55
2019-05-03T22:51:19.504Z,97827.59
2019-05-03T22:53:30.366Z,97823.48
2019-05-03T22:55:41.208Z,97824.89
2019-05-03T22:57:52.129Z,97818.72
2019-05-03T23:00:06.406Z,97817.86
2019-05-03T23:02:17.657Z,97812.39
2019-05-03T23:04:28.617Z,97808.99
2019-05-03T23:06:39.507Z,97810.37
2019-05-03T23:08:50.352Z,97808.16
2019-05-03T23:11:01.211Z,97811.47
2019-05-03T23:13:12.066Z,97798.53
2019-05-03T23:15:24.422Z,97805.34
2019-05-03T23:17:35.574Z,97803.14
2019-05-03T23:19:48.320Z,97797.77
2019-05-03T23:22:06.850Z,97800.56
2019-05-03T23:24:17.790Z,97796.67
2019-05-03T23:26:28.628Z,97800.14
2019-05-03T23:28:39.601Z,97792.94
2019-05-03T23:30:50.433Z,97790.42
2019-05-03T23:33:01.349Z,97783.50
2019-05-03T23:35:12.467Z,97781.63
2019-05-03T23:37:23.440Z,97780.69
2019-05-03T23:39:34.292Z,97779.03
2019-05-03T23:41:45.137Z,97773.95
2019-05-03T23:43:56.004Z,97771.44
2019-05-03T23:46:07.233Z,97765.34
2019-05-03T23:48:18.109Z,97766.64
2019-05-03T23:50:28.938Z,97755.69
2019-05-03T23:52:39.838Z,97754.58
2019-05-03T23:54:50.684Z,97753.67
2019-05-03T23:57:03.409Z,97749.20
2019-05-03T23:59:14.873Z,97748.26
